Dados Meteorológicos "Online"
 
  Base de Dados  
 
Dinamização da Estação Meteorológica (na escola)
 
Dados relativos aos últimos 2 meses:
Data/HoraTemperaturaHumi. Rela.PressãoPrecipitaçãoVel.VentoDir.VentoVel.RajadaDir.RajadaRadiação SolarÍndice U.V.
(ºC)(%)(hPa)(mm)(km/h)(km/h)(W / m2)(0-11)
2018-01-21 08:00:0010,988,91030,2013,0NE27,1NE20
2018-01-21 07:00:0010,689,01029,809,9NE19,9NE-10
2018-01-21 06:00:0010,090,61029,7010,6NE21,0NE00
2018-01-21 05:00:007,295,71029,405,3NW13,1N00
2018-01-21 04:00:008,891,01029,804,0N10,3N-10
2018-01-21 03:00:008,692,11030,205,8N14,2N00
2018-01-21 02:00:006,989,91030,201,9E7,6NE00
2018-01-21 01:00:007,287,21030,202,7SW6,8N00
2018-01-21 00:00:007,484,61030,204,0NW7,3NW00
2018-01-20 23:00:008,379,01029,802,9N8,7NW00
2018-01-20 22:00:009,574,91029,304,6NW16,4NW00
2018-01-20 21:00:0010,182,21028,802,6W11,9NW00
2018-01-20 20:00:0011,083,91028,103,8NW11,5NW00
2018-01-20 19:00:0012,680,91027,205,2NW11,0NW00
2018-01-20 18:00:0015,372,91026,506,5NW12,6W140
2018-01-20 17:00:0017,865,71026,306,9W17,1W410,1
2018-01-20 16:00:0018,459,11026,006,4SW13,6SW610,3
2018-01-20 15:00:0021,246,21026,107,2SW12,9SW3281,0
2018-01-20 14:00:0020,542,21026,606,5SW12,8W4061,3
2018-01-20 13:00:0018,454,31027,307,1SW13,3SW4551,5
2018-01-20 12:00:0017,656,01028,203,7W10,3S4251,3
2018-01-20 11:00:0014,572,31028,302,2NW5,7NW3570,7
2018-01-20 10:00:009,296,61028,501,1NW5,3W2390,2
2018-01-20 09:00:004,5100,01028,401,0N7,3W460,0
2018-01-20 08:00:003,9100,01027,802,3N4,7N30
2018-01-20 07:00:004,0100,01027,101,2N3,2N00
2018-01-20 06:00:004,5100,01026,501,0NE6,7NW00
2018-01-20 05:00:004,999,81026,302,9E6,7E00
2018-01-20 04:00:005,199,31026,201,9N5,1N00
2018-01-20 03:00:005,898,81026,002,0NE5,9NW00
2018-01-20 02:00:006,398,01025,702,7N7,3N00
2018-01-20 01:00:007,197,21025,902,0NE5,3N-10
2018-01-20 00:00:007,896,41025,803,5NE8,1N00
2018-01-19 23:00:008,394,51025,301,2NW7,3NW00
2018-01-19 22:00:009,192,91024,702,0S5,4W00
2018-01-19 21:00:0010,190,21023,802,6NW8,4NW00
2018-01-19 20:00:0011,186,61022,902,7NW7,6NW00
2018-01-19 19:00:0013,773,81021,704,5NW12,4W-10
2018-01-19 18:00:0016,955,01020,8010,2NE20,3NE70
2018-01-19 17:00:0018,150,11020,0011,0NE21,9NE240,1
2018-01-19 16:00:0019,244,21019,2012,9NE27,3NE580,4
2018-01-19 15:00:0020,643,41019,008,7NE19,9NE3851,1
2018-01-19 14:00:0019,547,71019,5012,2NE26,0E4691,5
2018-01-19 13:00:0018,650,01020,1012,4NE26,3NE4731,6
2018-01-19 12:00:0017,655,21020,5011,5N22,3N4291,3
2018-01-19 11:00:0015,963,11020,807,2N21,3NE3410,8
2018-01-19 10:00:0012,875,41020,702,7NW9,9N2000,2
2018-01-19 09:00:006,897,31020,703,1N9,2N610,0
2018-01-19 08:00:005,797,01020,203,6N8,7NW10
2018-01-19 07:00:006,394,81019,602,1N5,1NW00
2018-01-19 06:00:007,391,01019,003,3NW8,6NW00
2018-01-19 05:00:006,892,61019,106,7N15,6NW00
2018-01-19 04:00:006,394,01019,504,0NE11,6N-10
2018-01-19 03:00:006,492,81019,302,9NE6,5E00
2018-01-19 02:00:006,690,41019,002,0W6,3NW00
2018-01-19 01:00:007,687,91019,102,8NE8,1E00
2018-01-19 00:00:007,494,81019,101,5N5,5E00
2018-01-18 23:00:007,597,71018,902,5N7,6NE00
2018-01-18 22:00:008,596,61018,502,3NW6,4N00
2018-01-18 21:00:009,594,41018,501,8NW5,3W00
2018-01-18 20:00:0010,792,01018,501,6SW6,1W00
2018-01-18 19:00:0011,489,51018,202,5NW5,5N00
2018-01-18 18:00:0012,186,41018,102,6W5,3W30
2018-01-13 15:00:0016,061,01018,2013,0NW30,1N2890,8
2018-01-13 14:00:0015,072,51018,5012,4NW32,1NW4211,3
2018-01-13 12:00:0012,198,41019,2012,2NW29,8NW3110,8
2018-01-13 11:00:0012,2100,01019,1011,0NW28,9NW3180,5
2018-01-13 10:00:0010,9100,01018,90,29,0NW22,8NW630,1
2018-01-13 09:00:0011,7100,01018,05,611,2NW29,9NW70
2018-01-13 08:00:0012,2100,01017,60,610,4SW22,3SW00
2018-01-13 07:00:0011,899,61017,91,210,3SW25,3SW00
2018-01-13 06:00:0012,691,81018,01,210,3SW23,9SW00
2018-01-13 05:00:0012,387,71018,2011,0SW24,5SW00
2018-01-13 04:00:009,888,81019,003,5NE17,7S00
2018-01-13 03:00:009,587,61019,702,9NE7,4NE00
2018-01-13 02:00:009,487,31020,403,4E7,8NE-10
2018-01-13 01:00:009,287,31021,503,9E14,4E00
2018-01-13 00:00:008,988,81022,203,4E6,7E00
2018-01-12 23:00:008,989,61022,503,1E5,8E00
2018-01-12 22:00:008,890,31022,602,3NE5,7E00
2018-01-12 21:00:009,389,91022,502,6NE6,9E00
2018-01-12 20:00:009,689,01022,902,0E7,0E00
2018-01-12 19:00:009,886,31022,700,9SE3,1N00
2018-01-12 18:00:0011,279,51022,601,9SW8,4SW90
2018-01-12 17:00:0012,872,11022,506,0SW10,9SW760,0
2018-01-12 16:00:0013,269,31022,506,3SW12,4SW1080,3
2018-01-12 15:00:0014,466,21022,606,2SW11,2SW2330,8
2018-01-12 14:00:0014,563,11023,405,1S10,5SW3591,4
2018-01-12 13:00:0013,065,91025,20,44,4E11,2E2911,1
2018-01-12 11:00:009,491,21026,502,7E8,7E2740,7
2018-01-12 10:00:007,299,91026,702,9E8,1SE2180,2
2018-01-12 09:00:003,9100,01026,601,6NE5,2E810,0
2018-01-12 08:00:003,2100,01026,502,5NE6,3E20
2018-01-12 07:00:003,7100,01026,402,1NE6,4E00
2018-01-12 06:00:004,0100,01026,502,9NE6,9E00
2018-01-12 05:00:004,5100,01026,603,1NE13,7E00
2018-01-12 04:00:004,6100,01026,703,0NE8,7E00
2018-01-12 03:00:005,1100,01027,002,0NE6,5E00
2018-01-12 02:00:005,5100,01027,302,2N7,8NE00
2018-01-12 01:00:006,1100,01028,002,6E6,3SE00
2018-01-12 00:00:006,899,61028,502,0E5,6E00
2018-01-11 23:00:007,499,01028,402,9NE10,3S00
2018-01-11 22:00:007,997,71027,804,2NW8,4N00
2018-01-11 21:00:008,496,31027,604,6NW9,9NW00
2018-01-11 20:00:009,092,41027,204,1NW9,2NW00
2018-01-11 19:00:0010,585,61026,60,25,0NW10,7NW00
2018-01-11 18:00:0012,476,51026,207,5NW20,0NW50
2018-01-11 17:00:0014,168,01025,8010,5NW21,6NW380,0
2018-01-11 16:00:0015,560,01025,6010,1NW23,0NW1020,3
2018-01-11 15:00:0016,551,11025,4010,4NW20,9N3591,0
2018-01-11 14:00:0015,960,31026,1012,2NW26,2N3521,2
2018-01-11 13:00:0015,960,01026,50,210,6NW25,2N3361,2
2018-01-11 12:00:0015,072,01027,207,2NW24,0NW3961,2
2018-01-11 11:00:008,599,21028,70,21,7E4,7E2730,5
2018-01-11 09:00:004,2100,01028,801,6NE4,5E690,0
2018-01-11 08:00:003,8100,01028,401,8E7,2SE20
2018-01-11 07:00:004,0100,01028,201,8N6,8N00
2018-01-11 06:00:004,6100,01027,901,4E4,8S00
2018-01-11 05:00:005,0100,01027,701,4E3,7N00
2018-01-11 04:00:005,5100,01027,401,6N4,2N00
2018-01-11 03:00:006,0100,01027,700,9NE3,6SE00
2018-01-11 02:00:006,7100,01027,601,9N4,5NE00
2018-01-11 01:00:007,399,91027,501,6N5,3W00
2018-01-11 00:00:007,898,81027,203,8W9,5NW00
2018-01-10 23:00:008,897,41026,702,1W10,0NW00
2018-01-10 22:00:009,597,31026,106,4NW10,7N00
2018-01-10 21:00:0010,298,31025,507,2NW13,0NW00
2018-01-10 20:00:0011,398,11024,904,8NW11,1W00
2018-01-10 19:00:0012,494,81024,204,7W9,9W00
2018-01-10 18:00:0013,592,01023,507,2NW20,8NW80
2018-01-10 17:00:0015,087,11022,60,213,7NW31,9NW470,0
2018-01-10 16:00:0017,273,41021,9014,8NW42,6NW1430,3
2018-01-10 15:00:0017,568,91021,3014,6W30,6W3310,9
2018-01-10 14:00:0016,273,91022,0015,2W31,5NW2041,0
2018-01-10 13:00:0015,291,01022,3015,4NW36,2W1510,9
2018-01-10 12:00:0014,8100,01022,509,5W28,6NW3871,1
2018-01-10 11:00:0012,9100,01022,802,4SE6,4S3330,7
2018-01-10 10:00:0010,5100,01023,401,3SE3,5SE2210,2
2018-01-10 09:00:007,7100,01023,200,8E2,5SE510,0
2018-01-10 08:00:007,3100,01022,601,7E5,8SE10
2018-01-10 07:00:006,8100,01021,901,0E2,6E00
2018-01-10 06:00:007,1100,01020,90,21,1S11,5SE00
2018-01-10 05:00:007,5100,01020,601,3NE10,6E00
2018-01-10 04:00:007,9100,01020,102,2NW5,3NW00
2018-01-10 03:00:008,7100,01019,402,3W5,2SW00
2018-01-10 02:00:009,6100,01019,003,5W8,3NW00
2018-01-10 01:00:0010,5100,01018,904,5W11,8NW00
2018-01-10 00:00:0011,1100,01018,505,4NW13,6W00
2018-01-09 23:00:0011,6100,01018,205,4NW12,5N00
2018-01-09 22:00:0011,7100,01017,805,5NW12,7NW00
2018-01-09 21:00:0011,9100,01016,705,3NW12,3NW00
2018-01-09 20:00:0012,7100,01016,107,1NW16,9W00
2018-01-09 19:00:0012,8100,01014,908,3NW18,3NW00
2018-01-09 18:00:0012,7100,01014,007,3NW16,9NW50
2018-01-09 17:00:0013,5100,01013,50,87,4W23,5SW90
2018-01-09 16:00:0012,2100,01014,8410,4S27,0S170,0
2018-01-09 14:00:0011,7100,01016,12,612,5S30,1SW330,0
2018-01-09 13:00:0011,5100,01017,11,613,7S30,1S600,2
2018-01-09 12:00:0011,2100,01018,00,611,8SW35,5SW730,2
2018-01-09 11:00:0010,6100,01018,43,611,3SW28,9W320,0
2018-01-09 10:00:008,099,11018,21,43,2E8,3E320,0
2018-01-09 09:00:007,196,71018,214,9E10,8E150
2018-01-09 08:00:006,691,91018,10,24,5E9,0E00
2018-01-09 07:00:005,993,41018,104,0E9,8E00
2018-01-09 06:00:005,194,91018,304,4E13,4E00
2018-01-09 05:00:004,197,11018,203,3E8,5E00
2018-01-09 04:00:003,398,31018,404,1E8,6E00
2018-01-09 03:00:003,199,01018,503,0E6,4E00
2018-01-09 02:00:002,799,01018,302,1E4,7E00
2018-01-09 01:00:002,798,41018,301,3NE4,4NE00
2018-01-09 00:00:003,297,61018,202,5E12,8E00
2018-01-08 23:00:003,896,51018,202,3NE4,8N00
2018-01-08 22:00:004,694,31017,901,4NE3,8N00
2018-01-08 21:00:005,491,31017,600,7NW4,4NW00
2018-01-08 20:00:006,287,61016,602,3N5,6N00
2018-01-08 19:00:007,879,71015,502,3N5,4NW00
2018-01-08 18:00:009,671,21014,304,4NE11,4NE50
2018-01-08 17:00:0010,769,91013,004,9S13,4S230,0
2018-01-08 16:00:0011,165,71012,404,2NE10,4NE570,2
2018-01-08 15:00:0011,962,21011,706,2NE17,5E3300,8
2018-01-08 14:00:0011,366,01011,807,7NE16,9NE4301,2
2018-01-08 13:00:0010,271,81012,209,7NE21,3NE4341,3
2018-01-08 12:00:009,477,11012,3010,2NE23,3N3731,0
2018-01-08 11:00:008,979,91011,8011,8NE27,0E2900,6
2018-01-08 10:00:007,495,11011,309,2NE18,5E2170,2
2018-01-08 09:00:005,8100,01010,009,7NE27,7E610,0
2018-01-08 08:00:005,5100,01009,507,0N16,9NE10
2018-01-08 07:00:005,8100,01008,503,6N10,8NW00
2018-01-08 06:00:006,5100,01007,805,3N15,1N00
2018-01-08 05:00:007,799,81007,20,47,1NW15,2NW00
2018-01-08 03:00:008,097,31006,51,66,1NW16,3NW00
2018-01-08 02:00:007,689,41006,70,86,0W15,5NW00
2018-01-08 01:00:008,281,61007,203,6W11,2W00
2018-01-08 00:00:007,482,21007,604,7NW10,4NW00
2018-01-07 23:00:007,381,31007,505,7NW12,5NW00
2018-01-07 22:00:007,180,91007,304,7NW12,6NW00
2018-01-07 21:00:008,276,31007,002,6W6,9NW00
2018-01-07 20:00:009,072,11006,404,4NW9,1NW00
2018-01-07 19:00:009,371,61005,905,0N13,3N00
2018-01-07 18:00:0010,466,81005,105,6N13,7N70
2018-01-07 17:00:0012,057,81004,4011,6N29,0N380,0
2018-01-07 16:00:0012,852,81003,4018,2N35,8NW880,2
2018-01-07 15:00:0013,851,61003,0016,9N32,9NW3880,7
2018-01-07 14:00:0013,451,71003,2019,8N39,9N4061,0
2018-01-07 13:00:0013,352,71003,7019,5N38,0NW4461,1
2018-01-07 12:00:0012,955,41004,6018,7N36,2NW3870,9
2018-01-07 11:00:0012,160,41005,1016,9N31,6N3250,5
2018-01-07 10:00:0010,671,51005,507,7N23,9N1980,1
2018-01-07 09:00:005,195,11005,804,2NW9,0N550,0
2018-01-07 08:00:005,394,41005,803,6W9,6W10
2018-01-07 07:00:005,694,51005,705,0W11,4W00
2018-01-07 06:00:006,389,51005,104,6W14,6NW00
2018-01-07 05:00:007,182,01005,809,4W20,6W00
2018-01-07 04:00:007,574,21005,806,9NW23,5NW00
2018-01-07 02:00:007,773,51005,904,0NW14,8N00
2018-01-07 01:00:007,672,51006,303,4NW23,8N00
2018-01-07 00:00:008,468,91006,608,8N22,4N00
2018-01-06 23:00:008,671,21006,6010,9N26,8NW00
2018-01-06 22:00:008,571,41006,704,5NW13,2N00
2018-01-06 21:00:008,572,81006,706,5N19,4N00
2018-01-06 20:00:008,275,41006,404,2N15,8N00
2018-01-06 19:00:008,472,81006,102,5NW6,0NW00
2018-01-06 18:00:009,367,21005,705,1NW10,9N50
2018-01-06 17:00:0010,856,31005,208,0NW19,5N430,0
2018-01-06 16:00:0011,752,61004,609,9NW25,8N1000,1
2018-01-06 15:00:0012,749,21004,3011,8NW27,5N2120,4
2018-01-06 14:00:0012,851,51004,1011,0NW30,8N2020,6
2018-01-06 13:00:0012,949,41004,5016,2N28,3N3720,9
2018-01-06 12:00:0012,453,51005,0018,8N33,7N3910,8
2018-01-06 11:00:0011,862,31005,709,4NW25,5NW3310,5
2018-01-06 10:00:008,877,81006,405,0N12,5N1190,1
2018-01-06 09:00:007,687,21006,309,9N21,5N270,0
2018-01-06 08:00:006,1100,01005,505,8NW15,7N00
2018-01-06 07:00:006,5100,01004,908,2NW22,4N00
2018-01-06 06:00:006,8100,01004,6011,4N28,3N00
2018-01-06 05:00:007,2100,01004,607,2NW20,0NW00
2018-01-06 04:00:007,4100,01004,908,3NW23,1NW00
2018-01-06 03:00:007,6100,01004,904,1NW11,2N00
2018-01-06 02:00:007,9100,01004,804,8NW11,2N00
2018-01-06 01:00:008,3100,01005,506,2NW15,3NW00
2018-01-06 00:00:008,6100,01006,70,67,2N26,3NE00
2018-01-05 22:00:008,9100,01007,81,66,9NE14,1NE00
2018-01-05 21:00:008,8100,01007,71,812,2N33,5N00
2018-01-05 20:00:0010,8100,01007,43,411,3NW41,2N00
2018-01-05 19:00:0011,4100,01008,00,65,1SW11,1SW00
2018-01-05 18:00:0011,6100,01008,50,43,2SW9,7SW10
2018-01-05 17:00:0011,799,81009,313,7NW10,1NW150
2018-01-05 16:00:0012,898,91008,90,410,6N27,8N610,1
2018-01-05 15:00:0013,696,21009,59,28,3W22,4SW420,1
2018-01-05 14:00:0016,483,01010,00,216,3SW40,1SW760,2
2018-01-05 13:00:0016,979,31011,9016,8SW37,5SW1480,6
2018-01-05 12:00:0016,779,61013,6014,5SW31,9SW1580,7
2018-01-05 11:00:0016,180,71015,2013,7SW27,8SW1270,3
2018-01-05 10:00:0015,183,01016,3011,7SW26,7S600,0
2018-01-05 09:00:0014,286,81017,2012,1SW26,2S290,0
2018-01-05 08:00:0013,288,21017,809,1SW20,2S10
2018-01-05 07:00:0013,284,11018,407,1SW16,0SW00
2018-01-05 06:00:0012,986,91019,005,0W13,3SW00
2018-01-05 05:00:0012,691,81019,804,2W11,1SW00
2018-01-05 04:00:0012,494,91020,501,6W8,9NW00
2018-01-05 03:00:0012,594,21021,001,3W6,7W00
2018-01-05 02:00:0013,091,11021,906,0W17,9W00
2018-01-05 01:00:0013,284,81023,104,7SW13,3W00
2018-01-05 00:00:0012,990,01024,304,7W10,1SW00
2018-01-04 23:00:0013,094,61025,004,3W14,4NW00
2018-01-04 21:00:0013,194,81025,503,5NW9,1SW00
2018-01-04 20:00:0013,592,91025,904,0NW9,2NW00
2018-01-04 19:00:0014,091,51026,105,5W11,2NW00
2018-01-04 18:00:0014,391,71026,205,1W11,3W20
2018-01-04 17:00:0014,991,71026,204,2W10,6SW200,0
2018-01-04 16:00:0015,389,91026,004,9SW9,2SW520,1
2018-01-04 15:00:0015,984,91026,007,2SW16,5SW620,2
2018-01-04 14:00:0017,277,21026,904,6SW12,2S2050,9
2018-01-04 13:00:0016,381,71028,403,4NW8,5W1600,7
2018-01-04 12:00:0014,691,91029,902,4N9,8SE1190,4
2018-01-04 11:00:0012,899,81030,401,0NE11,8E720,2
2018-01-04 10:00:0011,7100,01030,202,1E5,5E430,0
2018-01-04 09:00:0010,6100,01030,000,9N3,4N150,0
2018-01-04 08:00:009,9100,01030,100,7SE8,4S10
2018-01-04 07:00:009,3100,01030,000,8N2,9N00
2018-01-04 06:00:008,4100,01030,001,3NW6,0N00
2018-01-04 05:00:007,9100,01030,102,7NW6,3NW00
2018-01-04 04:00:007,6100,01030,201,9NW4,8NW00
2018-01-04 03:00:007,9100,01030,301,0N6,4N00
2018-01-04 02:00:008,499,91030,601,3N4,1NW00
2018-01-04 01:00:008,999,61031,001,2NW4,0N00
2018-01-04 00:00:009,599,11031,400,5SE2,7N00
2018-01-03 23:00:0010,198,61031,302,3NW7,5W00
2018-01-03 22:00:0010,697,31031,102,9NW7,7NW00
2018-01-03 21:00:0011,394,61030,902,9NW7,8NW00
2018-01-03 20:00:0012,990,11030,903,6N10,0N00
2018-01-03 19:00:0013,986,61030,704,8NE10,3NE00
2018-01-03 18:00:0015,181,71030,308,8NE21,5N30
2018-01-03 17:00:0016,477,11030,4010,9NE22,4NE170,0
2018-01-03 16:00:0017,871,91030,208,3E16,4E490,3
2018-01-03 15:00:0019,567,91030,205,9SW15,3SW3210,9
2018-01-03 14:00:0019,268,71030,805,4W15,9SW4171,4
2018-01-03 13:00:0017,872,31032,203,0NW7,7W3781,5
2018-01-03 12:00:0017,274,91033,308,6N20,3NE3571,2
2018-01-03 11:00:0014,590,01033,706,1NW16,4NW3080,7
2018-01-03 10:00:0011,599,61034,103,8NW8,5N1850,2
2018-01-03 09:00:008,2100,01033,903,1NW6,9N290,0
2018-01-03 08:00:008,0100,01033,704,2N12,9NE10
2018-01-03 07:00:006,8100,01033,604,8N9,5N00
2018-01-03 06:00:006,7100,01033,301,8NW4,4NW00
2018-01-03 05:00:007,1100,01033,301,2W4,4NW00
2018-01-03 04:00:007,599,91033,304,0NW7,4NW00
2018-01-03 03:00:007,299,51033,403,4N7,9N00
2018-01-03 02:00:007,298,91033,701,6N4,4N00
2018-01-03 01:00:007,798,41034,001,2NE3,6NW00
2018-01-03 00:00:007,997,51034,001,7NW5,3NW00
2018-01-02 23:00:008,496,31034,001,6NW4,2NW00
2018-01-02 22:00:009,195,21034,102,2NE5,9E00
2018-01-02 21:00:009,692,91033,401,6NW9,3NW00
2018-01-02 20:00:0010,390,31033,002,5W10,9NW00
2018-01-02 19:00:0011,884,21032,701,9W4,9NW-10
2018-01-02 18:00:0013,677,01032,305,2N11,5NE30
2018-01-02 17:00:0015,174,51032,004,9S13,9S330,1
2018-01-02 15:00:0017,564,91031,806,8S20,8S2880,8
2018-01-02 14:00:0017,761,31032,403,3NW15,8W3981,3
2018-01-02 13:00:0016,165,81033,203,4SE9,2NW4141,4
2018-01-02 12:00:0015,467,61034,102,9SE7,6S3851,2
2018-01-02 11:00:0012,183,31035,001,1E3,7E3230,7
2018-01-02 10:00:008,398,61035,501,4E3,9NE2290,2
2018-01-02 09:00:004,4100,01035,402,0E4,8E640,0
2018-01-02 08:00:003,5100,01035,102,9E5,5E20
2018-01-02 07:00:003,7100,01034,602,1E4,9NE00
2018-01-02 06:00:003,9100,01034,201,1N3,5NE00
2018-01-02 05:00:004,7100,01034,402,0NE6,7S00
2018-01-02 04:00:004,999,91034,601,3NE5,3S00
2018-01-02 03:00:005,499,81034,701,0E4,0NE00
2018-01-02 02:00:005,899,41034,701,5E3,9SE00
2018-01-02 01:00:006,299,01034,602,2N6,6N00
2018-01-02 00:00:006,698,31034,701,4N4,9N00
2018-01-01 23:00:007,297,31034,401,2S9,3SE00
2018-01-01 22:00:008,196,01034,302,0NE5,8N00
2018-01-01 21:00:008,794,01033,703,8NW7,0N00
2018-01-01 20:00:009,891,31033,302,8N5,5N00
2018-01-01 19:00:0010,984,91032,403,5NW9,3NW00
2018-01-01 18:00:0013,373,41032,104,1N10,9N30
2018-01-01 17:00:0014,667,51031,702,3SW6,1E210,0
2018-01-01 16:00:0016,059,01031,206,6SW11,6SW480,2
2018-01-01 15:00:0018,947,91031,104,4SW11,5S2940,8
2018-01-01 14:00:0018,145,41032,004,0N11,0N4241,3
2018-01-01 13:00:0016,554,91032,603,6NW10,2NW4321,4
2018-01-01 12:00:0015,369,51033,602,1SE6,5SE3971,2
2018-01-01 11:00:0011,193,21034,402,2NE9,0N3490,6
2018-01-01 10:00:008,499,61034,802,6E5,7SE2560,2
2018-01-01 09:00:005,2100,01034,502,8NE7,3N710,0
2018-01-01 08:00:005,1100,01034,302,3NE6,9NE20
2018-01-01 07:00:005,7100,01034,002,3E6,7E00
2018-01-01 06:00:006,0100,01033,602,4E11,5E00
2018-01-01 05:00:006,6100,01032,90,22,8N8,3N00
2018-01-01 03:00:007,5100,01033,002,3NE4,8NE00
2018-01-01 02:00:008,099,81033,003,0N7,0NW00
2018-01-01 01:00:008,999,41032,501,1E4,4S00
2018-01-01 00:00:009,398,91032,204,4E10,5E00
2017-12-31 23:00:009,397,51032,002,5E10,9SE00
2017-12-31 22:00:0010,196,71031,502,7N9,5E00
2017-12-31 21:00:0010,795,71030,702,9W9,3SE00
2017-12-31 20:00:0011,695,81029,605,5N15,7NW00
2017-12-31 19:00:0012,297,71028,308,6NW15,7N00
2017-12-31 18:00:0013,797,61026,708,3NW17,7NW30
2017-12-31 17:00:0015,388,71026,20,47,9NW20,3W300,0
2017-12-31 16:00:0017,271,91025,6011,0W30,8W720,1
2017-12-31 15:00:0018,366,51025,0011,1W28,5NW1610,6
2017-12-31 14:00:0018,873,81025,0011,4SW25,3W3441,2
2017-12-31 13:00:0017,378,21025,307,9SW17,5SW3681,3
2017-12-31 12:00:0015,081,31026,701,9SE5,3E2841,0
2017-12-31 11:00:0012,888,41027,000,6E6,1NE940,3
2017-12-31 10:00:0011,592,11026,601,4NE3,7NE640,1
2017-12-31 09:00:0010,395,91026,201,4E3,0SE220,0
2017-12-31 08:00:009,898,31026,001,8NE4,0NE00
2017-12-31 07:00:009,499,21025,501,0E5,0E00
2017-12-31 06:00:009,299,91025,402,7E6,2E00
2017-12-31 05:00:009,0100,01025,401,3E3,4SE00
2017-12-31 04:00:008,3100,01025,601,5NE4,4NE00
2017-12-31 03:00:008,099,71025,701,0E3,7NE00
2017-12-31 02:00:008,798,91026,102,3E4,4NE00
2017-12-31 00:00:009,597,41026,301,2E2,6SE00
2017-12-30 23:00:0010,096,51026,200,9NE2,5NE00
2017-12-30 22:00:0010,495,51025,801,6N3,9N00
2017-12-30 21:00:0011,193,21025,601,9NE7,8N00
2017-12-30 20:00:0011,891,21025,402,0W10,8W00
2017-12-30 19:00:0012,889,01025,103,1W8,3W00
2017-12-30 18:00:0014,385,01024,603,7W9,0W30
2017-12-30 17:00:0016,279,51023,004,5W11,7SW440,0
2017-12-30 16:00:0017,473,61022,907,8SW14,7SW970,3
2017-12-30 15:00:0019,066,21023,606,7SW14,2SW2450,8
2017-12-30 14:00:0020,055,81024,304,0S13,9S3611,3
2017-12-30 13:00:0019,158,61025,102,3NE7,2E4001,4
2017-12-30 12:00:0018,471,81026,203,1E7,0E3931,2
2017-12-30 11:00:0015,286,11026,602,1SE4,8SE3190,7
2017-12-30 10:00:0012,198,81027,402,2E11,0SE2240,2
2017-12-30 09:00:007,7100,01027,702,3NE5,6NE610,0
2017-12-30 08:00:006,8100,01027,402,1NE3,9NE20
2017-12-30 07:00:007,0100,01027,001,8NE4,1N00
2017-12-30 06:00:007,2100,01026,601,4N4,2NW00
2017-12-30 05:00:007,3100,01026,402,0NE6,4N-10
2017-12-30 04:00:007,6100,01026,502,4NE9,0NE00
2017-12-30 03:00:007,899,71026,802,3NE4,3NE00
2017-12-30 02:00:008,598,91027,101,5NE3,4E00
2017-12-30 00:00:009,397,71027,101,0NE3,7E00
2017-12-29 23:00:0010,096,91027,101,3NE3,5NE-10
2017-12-29 22:00:0010,695,31026,703,2N9,2N00
2017-12-29 21:00:0011,692,41026,203,6NW8,9NW00
2017-12-29 20:00:0012,389,11025,604,4NW9,3NW00
2017-12-29 19:00:0013,681,31024,703,8NW8,9NW00
2017-12-29 18:00:0016,170,91022,904,5NW11,1NW40
2017-12-29 17:00:0017,766,01023,507,9NW21,8NW340,0
2017-12-29 16:00:0018,861,01023,108,5NW26,4NW870,1
2017-12-29 15:00:0019,855,61022,106,3N18,0NW2570,8
2017-12-29 14:00:0019,562,21022,606,0N15,6N3631,2
2017-12-29 13:00:0018,575,71024,007,6NW16,6N2360,8
2017-12-29 12:00:0017,187,51025,304,2NW11,5NW1440,6
2017-12-29 11:00:0015,793,21025,701,7W7,0NE1000,2
2017-12-29 10:00:0014,298,81025,102,5NE5,9NW660,1
2017-12-29 09:00:0013,2100,01023,802,7W7,2NW180,0
2017-12-29 08:00:0012,7100,01023,401,3W7,0NW10
2017-12-29 07:00:0012,6100,01023,101,8SE5,1E00
2017-12-29 06:00:0012,499,81022,602,3E5,9E00
2017-12-29 05:00:0012,498,71022,102,8W7,4W00
2017-12-29 04:00:0012,898,31022,402,1NW8,2N00
2017-12-29 03:00:0013,097,01022,304,7SW10,5SW00
2017-12-29 02:00:0012,596,81022,103,8SW7,2SW00
2017-12-29 01:00:0013,294,71022,303,8W9,2W00
2017-12-28 23:00:0013,395,41022,003,6W12,0W00
2017-12-28 22:00:0014,193,81021,604,5W8,4W00
2017-12-28 21:00:0014,092,21021,304,1W17,4SW00
2017-12-28 20:00:0014,189,91020,603,6W15,0W00
2017-12-28 19:00:0014,390,31019,908,1NW17,9NW00
2017-12-28 18:00:0014,792,51019,5010,2NW20,9NW30
2017-12-28 17:00:0015,790,61018,909,2NW21,8NW270,0
2017-12-28 16:00:0017,182,11018,4011,7NW28,0N690,1
2017-12-28 15:00:0017,285,81018,408,6NW21,6NW1130,3
2017-12-28 14:00:0017,982,31018,7010,1NW31,7N2030,7
2017-12-28 13:00:0017,485,11019,209,8NW23,7W2661,0
2017-12-28 12:00:0017,086,21019,609,7NW21,0NW1770,6
2017-12-28 11:00:0016,486,91019,609,3NW26,2N1750,4
2017-12-28 10:00:0014,793,51019,503,9W11,2NW600,1
2017-12-28 09:00:0013,696,31019,303,0W10,2NW300,0
2017-12-28 08:00:0013,495,81019,004,5W17,6W10
2017-12-28 07:00:0013,593,81018,506,7NW19,2NW00
2017-12-28 06:00:0013,697,81018,309,2NW22,6NW00
2017-12-28 05:00:0013,6100,01018,20,210,0NW24,7NW00
2017-12-28 04:00:0013,8100,01018,307,4NW18,1NW00
2017-12-28 03:00:0013,9100,01018,308,5NW21,2NW00
2017-12-28 02:00:0013,9100,01018,509,0NW20,5NW00
2017-12-28 01:00:0014,2100,01019,20,210,1NW24,4NW00
2017-12-28 00:00:0014,099,81019,60,47,4W19,4W00
2017-12-27 23:00:0013,298,71019,706,9W13,5W00
2017-12-27 22:00:0013,195,71019,807,9NW17,0NW00
2017-12-27 21:00:0013,392,41019,607,8NW17,5NW00
2017-12-27 20:00:0013,789,11019,409,3NW24,6NW00
2017-12-27 19:00:0013,787,31018,809,6NW21,2NW00
2017-12-27 18:00:0014,582,41018,4011,0NW24,7NW40
2017-12-27 17:00:0015,578,21018,2012,9NW29,3NW270,0
2017-12-27 16:00:0016,274,91018,0014,8NW30,3NW790,2
2017-12-27 15:00:0016,874,61017,8015,4NW29,9NW1740,7
2017-12-27 14:00:0017,177,61018,1012,2NW30,4NW2671,1
2017-12-27 13:00:0016,679,91018,6010,8NW23,3NW1830,8
2017-12-27 12:00:0016,978,21018,9012,3NW32,3NW1810,6
2017-12-27 11:00:0016,580,81019,3012,1NW29,4NW2290,5
2017-12-27 10:00:0016,281,31018,9012,0NW28,4N1780,1
2017-12-27 09:00:0014,291,41018,3010,7NW28,0NW350,0
2017-12-27 08:00:0013,892,81017,909,8NW28,1NW20
2017-12-27 07:00:0014,295,21017,20,215,9NW37,0NW00
2017-12-27 06:00:0015,390,31016,80,216,8NW43,7NW00
2017-12-27 05:00:0015,387,01016,9016,4W39,8NW00
2017-12-27 04:00:0015,085,81017,5017,1W40,4W00
2017-12-27 03:00:0014,589,61018,00,216,7NW36,5W00
2017-12-27 02:00:0014,884,01018,3011,2W28,8W00
2017-12-27 01:00:0014,287,51019,50,29,3W28,4W00
2017-12-27 00:00:0013,889,51020,208,9W23,2W00
2017-12-26 23:00:0013,885,21020,607,6W19,6W00
2017-12-26 22:00:0013,384,91020,808,6W27,6W00
2017-12-26 21:00:0012,683,81021,304,5W13,0W00
2017-12-26 20:00:0011,886,81021,406,1W13,8SW00
2017-12-26 19:00:0011,687,41021,205,4SW11,4W00
2017-12-26 18:00:0012,983,41021,305,2W11,8NW30
2017-12-26 17:00:0014,873,91021,607,0W19,0NW540,0
2017-12-26 15:00:0015,966,81021,909,3NW19,8NW1670,4
2017-12-26 14:00:0015,571,81022,707,6NW20,7NW1610,6
2017-12-26 13:00:0014,681,31023,506,8NW15,3NW1460,6
2017-12-26 12:00:0012,999,31024,402,8W9,0W2230,6
2017-12-26 11:00:0011,1100,01025,101,8SE5,5NE1480,3
2017-12-26 10:00:0010,6100,01024,902,0E4,9NE1880,2
2017-12-26 09:00:008,5100,01024,301,2E3,5E700,0
2017-12-26 08:00:008,3100,01024,201,5E5,1E20
2017-12-26 07:00:008,8100,01023,802,1N5,2NW00
2017-12-26 06:00:009,5100,01023,202,3NW6,4NW00
2017-12-26 05:00:0010,4100,01023,102,5NW8,0NW00
2017-12-26 04:00:0011,0100,01022,904,2NW10,6W00
2017-12-26 03:00:0011,2100,01022,805,2NW13,5NW00
2017-12-26 02:00:0011,8100,01022,705,8NW11,2W00
2017-12-26 01:00:0013,198,91022,716,5W17,0W00
2017-12-26 00:00:0013,298,01022,907,4W16,2W00
2017-12-25 23:00:0012,197,41023,105,8W16,6W00
2017-12-25 22:00:0011,797,21023,003,8W14,5SW00
2017-12-25 21:00:0012,595,11022,905,6W14,4SW00
2017-12-25 20:00:0012,496,31022,806,1SW13,5SW00
2017-12-25 19:00:0012,793,61022,405,5SW13,8SW00
2017-12-25 18:00:0014,083,91022,007,2SW16,1SW20
2017-12-25 17:00:0015,875,51021,908,0W18,9SW570,0
2017-12-25 16:00:0016,277,21021,708,9W20,5W810,2
2017-12-25 15:00:0016,679,41021,809,4SW22,6W2020,7
2017-12-25 14:00:0015,687,51022,505,9SW17,7W2290,9
2017-12-25 13:00:0015,984,01023,20,27,5SW17,1SW1530,5
2017-12-25 12:00:0015,486,51023,904,5S14,9SW3431,2
2017-12-25 11:00:0012,399,81024,801,9E4,8E3330,7
2017-12-25 10:00:0010,4100,01025,101,4E5,4SE2010,2
2017-12-25 09:00:007,9100,01024,801,4E5,1NE720,0
2017-12-25 08:00:007,1100,01024,601,6E6,5E10
2017-12-25 07:00:008,0100,01024,202,0E5,2E00
2017-12-25 05:00:009,2100,01024,302,7E9,3NE00
2017-12-25 04:00:009,9100,01024,30,22,0E6,5SW00
2017-12-25 03:00:009,8100,01024,503,1E6,2NE00
2017-12-25 02:00:0010,5100,01024,601,7E4,4E00
2017-12-25 01:00:0010,7100,01025,001,0NE3,0NW00
2017-12-25 00:00:0011,599,71025,101,9N7,1N00
2017-12-24 23:00:0011,298,31025,30,62,6SE8,2SW00
2017-12-24 22:00:0010,998,11025,302,9E9,1E00
2017-12-24 21:00:0011,197,81025,402,2NE5,8NE00
2017-12-24 20:00:0011,695,01025,204,0E7,9E00
2017-12-24 19:00:0013,091,91024,904,6NE9,0E00
2017-12-24 18:00:0014,286,71024,804,2E12,5NE20
2017-12-24 17:00:0015,381,11024,605,8SE10,6E340,0
2017-12-24 16:00:0015,877,91024,708,5SE17,7SE890,1
2017-12-24 15:00:0015,977,11025,0013,2SE24,2SE1680,4
2017-12-24 14:00:0016,475,71025,6012,9SE22,3E2800,9
2017-12-24 13:00:0015,977,51026,6013,2SE26,0E2750,9
2017-12-24 12:00:0015,280,91027,6011,8SE23,1SE2620,7
2017-12-24 11:00:0013,887,11028,105,0E14,7SE1380,2
2017-12-24 10:00:0012,790,51027,90,25,2E12,0SE510,0
2017-12-24 09:00:0012,393,11027,707,4E18,4E370,0
2017-12-24 08:00:0012,396,71027,409,1E19,5E10
2017-12-24 07:00:0011,0100,01027,203,8SE20,7SE00
2017-12-24 06:00:0010,399,91027,201,6NE6,0E00
2017-12-24 04:00:009,899,81027,902,2E6,0NE00
2017-12-24 03:00:009,299,21028,203,1NE7,7NE00
2017-12-24 02:00:008,598,31028,403,1NE7,2NE00
2017-12-24 01:00:008,795,71028,904,0E12,0NE00
2017-12-24 00:00:008,695,31029,304,1E9,8E00
2017-12-23 23:00:008,498,21029,404,3E8,7E00
2017-12-23 22:00:008,599,11029,203,6E6,2E00
2017-12-23 21:00:009,398,41028,903,8E6,5E00
2017-12-23 20:00:0010,297,81028,603,7E13,0E00
2017-12-23 19:00:0011,096,51028,203,4E7,7E00
2017-12-23 18:00:0012,292,11027,704,8SE11,5SE30
2017-12-23 17:00:0013,486,11027,208,1S15,5S210,0
2017-12-23 16:00:0014,380,51026,806,8S15,9S460,2
2017-12-23 15:00:0016,271,91026,906,0S16,0SW2740,7
2017-12-23 14:00:0016,072,41027,708,1S16,6SW3831,1
2017-12-23 13:00:0015,671,81028,708,4S16,3S3971,2
2017-12-23 12:00:0014,768,81029,903,5SE8,9SE3881,1
2017-12-23 11:00:0012,381,21030,504,5SE8,1E3170,6
2017-12-23 10:00:008,597,71030,003,8SE9,4E2180,2
2017-12-23 09:00:004,4100,01029,802,3NE6,2SE640,0
2017-12-23 08:00:003,5100,01030,102,5N6,0NW20
2017-12-23 07:00:004,0100,01030,202,5E7,6NE00
2017-12-23 06:00:004,2100,01030,101,9E10,1E00
2017-12-23 04:00:004,599,81030,802,0E5,6E00
2017-12-23 03:00:004,899,41030,901,5E7,4NE00
2017-12-23 02:00:005,498,91031,201,8E4,7E00
2017-12-23 01:00:006,098,31031,701,1NE3,1N00
2017-12-23 00:00:006,597,01032,101,1E3,8SE00
2017-12-22 23:00:007,093,91032,201,3E3,7E00
2017-12-22 22:00:007,689,61032,002,1W5,3NW00
2017-12-22 21:00:008,686,01032,202,4N5,9NW00
2017-12-22 20:00:009,783,61032,103,0NW13,9NW00
2017-12-22 19:00:0010,682,21031,804,9NW9,8NW00
2017-12-22 18:00:0012,384,61031,504,0NW10,0NW20
2017-12-22 17:00:0014,482,11031,303,4SW10,9SW140,0
2017-12-22 16:00:0015,674,51031,307,9SW14,1SW340,2
2017-12-22 15:00:0018,460,71031,907,5SW15,4SW2800,8
2017-12-22 14:00:0018,954,81033,103,8SW11,1S3991,3
2017-12-22 13:00:0017,157,81034,503,1W8,1W4181,4
2017-12-22 12:00:0016,169,11035,602,3E8,2NE3971,3
2017-12-22 11:00:0012,480,51036,501,4SE7,7SE3260,8
2017-12-22 10:00:008,498,21036,601,6E8,1NE2300,2
2017-12-22 09:00:004,9100,01036,402,5NE8,6NE700,0
2017-12-22 08:00:003,8100,01036,103,3E6,4E20
2017-12-22 07:00:004,0100,01035,804,0E6,9NE00
2017-12-22 06:00:004,3100,01035,603,2E8,9E00
2017-12-22 04:00:004,8100,01035,903,1E5,7E00
2017-12-22 03:00:004,899,71035,703,0E5,7NE00
2017-12-22 02:00:005,399,21035,602,4E5,3E00
2017-12-22 01:00:005,898,91035,603,6E5,8E00
2017-12-22 00:00:006,198,11035,802,6E6,0E00
2017-12-21 23:00:006,797,71035,603,3E6,6E00
2017-12-21 22:00:007,296,61035,302,8E5,8NE00
2017-12-21 21:00:008,195,21035,101,8E4,9NE00
2017-12-21 20:00:009,093,01034,901,9NE6,8NE00
2017-12-21 19:00:0010,187,91034,303,9NE6,6NE00
2017-12-21 18:00:0012,177,51033,503,4E8,0SE20
2017-12-21 17:00:0013,871,71032,707,8SE17,3S160,0
2017-12-21 16:00:0014,963,41032,208,0S17,0SE380,2
2017-12-21 15:00:0016,654,61032,007,5S16,1S2880,8
2017-12-21 14:00:0016,954,31032,106,9S20,1S4231,4
2017-12-21 13:00:0016,153,81032,708,6S16,8SE4421,5
2017-12-21 12:00:0015,855,11033,606,9SE13,8SE4071,3
2017-12-21 11:00:0012,473,01034,102,5E7,9E3350,8
2017-12-21 10:00:008,687,91033,702,3E6,5E2290,2
2017-12-21 09:00:004,1100,01033,302,4E9,3E680,0
2017-12-21 08:00:003,2100,01032,602,3NE5,8NE20
2017-12-21 07:00:003,4100,01032,002,6E5,1E00
2017-12-21 06:00:003,699,91031,801,8NE4,0NE00
2017-12-21 05:00:004,099,71031,702,8E9,8NE00
2017-12-21 04:00:004,299,21031,402,5E4,4E00
2017-12-21 03:00:004,598,51031,301,6E4,4E00
2017-12-21 02:00:005,198,11031,202,1N7,4N00
2017-12-21 01:00:005,198,21031,502,6NE7,6N00
2017-12-21 00:00:005,897,41031,401,2E4,5E00
2017-12-20 23:00:006,496,51031,201,7E6,7E00
2017-12-20 22:00:007,394,81030,701,7N5,0N00
2017-12-20 21:00:008,094,31030,802,0E5,3SE00
2017-12-20 20:00:008,990,91030,401,3N4,5N00
2017-12-20 19:00:0010,087,01029,802,0N5,7NE00
2017-12-20 18:00:0011,978,71029,303,6SW9,4SW20
2017-12-20 17:00:0013,671,21029,005,2SW12,8SW170,0
2017-12-20 16:00:0014,865,31028,706,4SW12,5SW390,2
2017-12-20 15:00:0016,857,31029,007,1SW12,3S2850,8
2017-12-20 14:00:0016,858,31029,707,5S20,3S4201,3
2017-12-20 13:00:0016,457,21030,405,0S11,3S4391,5
2017-12-20 12:00:0016,161,91031,304,4E10,1E4131,3
2017-12-20 11:00:0013,777,01032,203,6E7,7NE3360,8
2017-12-20 10:00:009,793,71031,902,2E7,7E2240,2
2017-12-20 09:00:005,9100,01031,403,1E9,2E630,0
2017-12-20 08:00:005,0100,01031,102,7E11,1E20
2017-12-20 07:00:005,2100,01030,601,7NE5,7E00
2017-12-20 06:00:006,099,91030,003,0NE8,9E00
2017-12-20 05:00:005,899,21029,701,3E4,7E00
2017-12-20 04:00:005,998,21029,703,6E7,1E00
2017-12-20 03:00:005,597,41029,803,9E7,5E-10
2017-12-20 02:00:004,997,51029,602,3E7,4E00
2017-12-20 01:00:005,297,71029,401,6E4,5NE00
2017-12-20 00:00:005,697,11029,201,2E3,5E00
2017-12-19 23:00:006,296,61028,902,1E10,0E00
2017-12-19 22:00:006,795,21028,502,2E5,7SE00
2017-12-19 21:00:007,591,41028,002,3E4,7E00
2017-12-19 20:00:008,786,61027,501,0NE9,1E00
2017-12-19 19:00:0010,080,91026,602,4NE5,7NE00
2017-12-19 18:00:0012,073,71026,203,5NE6,9NE20
2017-12-19 17:00:0014,470,01025,403,5SE8,3S160,0
2017-12-19 16:00:0015,169,61024,907,7S17,3S380,2
2017-12-19 15:00:0016,262,61024,6014,4SE25,5SE2910,8
2017-12-19 14:00:0018,647,61024,8011,3SE24,0S4271,3
2017-12-19 13:00:0018,446,81025,708,6NE18,3NE4451,4
2017-12-19 12:00:0017,349,11026,603,9E16,8E4101,3
2017-12-19 11:00:0015,055,61026,801,9NW9,3W3340,8
2017-12-19 10:00:009,072,31026,901,2NE5,7E1300,1
2017-12-19 08:00:004,683,51026,401,5S8,2SW20
2017-12-19 07:00:004,582,91026,003,5SW6,6N00
2017-12-19 06:00:004,382,41026,204,1N8,7N00
2017-12-19 05:00:004,679,91026,501,9NW5,2NW00
2017-12-19 04:00:005,576,81026,603,3N6,3NW00
2017-12-19 03:00:006,871,01027,003,6NE9,4NE00
2017-12-19 02:00:008,559,91027,506,5E12,3NE00
2017-12-19 01:00:009,653,61028,206,7NE14,9NE00
2017-12-19 00:00:007,663,41028,608,4NE20,3NE00
2017-12-18 23:00:005,874,71028,202,9NE6,6NW00
2017-12-18 22:00:006,971,11027,704,6NW11,3N00
2017-12-18 21:00:007,070,91028,603,9N9,2NE00
2017-12-18 20:00:007,966,71028,403,0N6,7N00
2017-12-18 19:00:0010,256,31028,003,7NE10,0NE00
2017-12-18 18:00:0012,150,61027,507,0NE14,7N20
2017-12-18 17:00:0013,646,81027,007,6NE17,3N150,0
2017-12-18 16:00:0014,544,31026,608,4NE18,1N370,2
2017-12-18 15:00:0015,938,61026,708,3E18,1NE2970,8
2017-12-18 14:00:0015,741,41027,305,5E9,9SE4421,3
2017-12-18 13:00:0014,544,91028,305,6E12,5E4581,3
2017-12-18 12:00:0014,044,81029,407,6E15,3E4261,2
2017-12-18 11:00:0012,648,71030,306,4NE13,9NE3480,7
2017-12-18 10:00:0010,056,31030,405,9NE15,5NE2210,2
2017-12-18 09:00:005,074,31030,104,3NE14,0NE250,0
2017-12-18 07:00:004,476,81029,704,0NE10,3NE-10
2017-12-18 06:00:004,775,81029,904,1NE9,7N00
2017-12-18 05:00:005,473,41030,002,0N11,1N00
2017-12-18 04:00:006,268,41030,404,9NE11,8NE00
2017-12-18 03:00:005,770,81030,404,5NE9,9NE00
2017-12-18 02:00:005,969,41030,305,6NE14,1NE00
2017-12-18 01:00:006,666,91030,304,4NE12,8NE00
2017-12-18 00:00:006,767,81030,506,2NE15,7N00
2017-12-17 23:00:007,265,91030,104,1NE8,4NE-10
2017-12-17 22:00:008,760,01029,507,2NE17,3NE00
2017-12-17 21:00:009,656,71029,3010,7NE24,0N-10
2017-12-17 20:00:0010,254,01028,809,6NE18,5N00
2017-12-17 19:00:0011,049,31028,008,2NE15,4NE00
2017-12-17 18:00:0012,344,21027,308,1NE17,4NE20
2017-12-17 17:00:0014,035,51026,609,3NE22,0NE140,0
2017-12-17 16:00:0014,833,71026,109,4NE20,7NE360,2
2017-12-17 15:00:0015,832,21026,1012,0NE26,9NE3030,8
2017-12-17 14:00:0016,133,01026,4012,0NE26,1NE4521,3
2017-12-17 13:00:0014,738,71026,8010,9E22,4E4701,4
2017-12-17 12:00:0014,040,41027,6011,2E23,5NE4331,2
2017-12-17 11:00:0013,045,11028,108,4NE20,3E3550,8
2017-12-17 10:00:0010,558,01027,806,8N13,6NE2280,2
2017-12-17 09:00:006,274,71027,605,1NE14,4N530,0
2017-12-17 08:00:005,578,21026,905,2NE14,2NE10
2017-12-17 06:00:005,976,71026,505,9NE11,9N00
2017-12-17 05:00:005,381,21026,304,2NE10,5NE00
2017-12-17 04:00:006,477,91026,303,4NE10,5NE00
2017-12-17 03:00:006,477,81026,104,7NE11,1NE00,0
2017-12-17 02:00:006,378,61025,602,9NW8,5N00
2017-12-17 01:00:007,672,01025,304,9N10,4NE00
2017-12-17 00:00:008,868,41025,306,6NE15,1NE-10
2017-12-16 23:00:008,969,81024,808,8NE17,9N-10
2017-12-16 22:00:008,671,91024,404,4E10,3E-10
2017-12-16 21:00:009,565,21023,909,9NE20,6N00
2017-12-16 20:00:009,365,81023,004,7N12,3N00
2017-12-16 19:00:009,765,51022,206,8N12,1N00
2017-12-16 18:00:0011,854,81021,3010,2N20,0N10
2017-12-16 17:00:0013,645,51020,8012,5N27,1N150,0
2017-12-16 16:00:0014,542,31020,2010,9N23,6NE380,2
2017-12-16 15:00:0016,039,01019,7011,6NE27,8NE2930,8
2017-12-16 14:00:0016,141,31020,009,4NE20,2NE4391,2
2017-12-16 13:00:0014,947,01020,607,5NE17,5E4561,4
2017-12-16 12:00:0013,952,01021,009,2N22,2N4251,2
2017-12-16 11:00:0012,056,61021,2011,7NE22,5NE3480,7
2017-12-16 10:00:0010,360,81021,3011,1NE22,4NE2200,2
2017-12-16 09:00:007,869,31020,909,2NE19,7NE520,0
2017-12-16 08:00:007,072,11020,207,2NE15,2NE30
2017-12-16 07:00:006,678,41018,904,6SE12,5E00
2017-12-16 05:00:006,781,91018,202,6SE10,7SE-10
2017-12-16 04:00:008,173,61018,105,2NE13,1N00
2017-12-16 03:00:008,575,31017,907,2N19,0N00
2017-12-16 02:00:008,375,81017,504,7NW15,2NW00
2017-12-16 01:00:009,071,11017,405,1N16,5N00
2017-12-16 00:00:0010,263,81017,305,1N15,7N00
2017-12-15 23:00:0011,465,31016,8013,0NE34,5N00
2017-12-15 22:00:009,993,81016,2019,6N36,4N00
2017-12-15 21:00:0010,4100,01015,6017,6N33,4N00
2017-12-15 20:00:0014,2100,01014,40,29,4N26,6N00
2017-12-15 19:00:0015,0100,01013,71,65,8W14,6NW00
2017-12-15 18:00:0015,1100,01013,40,25,0W14,4W20
2017-12-15 17:00:0015,2100,01013,60,65,9NW13,6W220,0
2017-12-15 16:00:0015,6100,01013,618,4NW26,1NW940,1
2017-12-15 15:00:0015,6100,01013,90,27,5NW16,0W1480,4
2017-12-15 14:00:0015,5100,01014,50,810,7NW27,4W980,3
2017-12-15 13:00:0015,9100,01015,2010,8W27,5NW2811,0
2017-12-15 12:00:0015,9100,01016,50,49,3W24,9W3151,0
2017-12-15 11:00:0015,8100,01017,60,47,5W21,7W1470,3
2017-12-15 10:00:0015,0100,01017,70,22,6W6,9W1220,2
2017-12-15 09:00:0013,4100,01017,703,4W9,9NW610,0
2017-12-15 08:00:0013,2100,01017,60,44,6W13,2NW20
2017-12-15 06:00:0013,3100,01017,80,27,1W17,1W00
2017-12-15 05:00:0012,7100,01018,105,0W12,6NW00
2017-12-15 04:00:0013,3100,01018,706,0W14,2NW00
2017-12-15 03:00:0013,5100,01019,105,4W13,4W00
2017-12-15 02:00:0013,3100,01019,40,27,1W12,5NW00
2017-12-15 01:00:0012,7100,01019,805,4W15,6W00
2017-12-15 00:00:0012,8100,01020,504,4W16,4SW00
2017-12-14 23:00:0012,8100,01021,005,7W13,7W00
2017-12-14 22:00:0011,9100,01021,504,5W10,9W00
2017-12-14 21:00:0011,7100,01021,603,9NW8,2NW00
2017-12-14 20:00:0012,2100,01021,605,3NW16,3NW00
2017-12-14 19:00:0013,099,71021,405,4NW11,7W00
2017-12-14 18:00:0014,198,91021,305,1NW13,9NW10
2017-12-14 17:00:0015,691,71021,40,47,7NW24,0W340,0
2017-12-14 16:00:0016,685,81021,508,1NW20,8W900,2
2017-12-14 15:00:0016,687,81022,003,6SW16,1NW1430,4
2017-12-14 14:00:0016,090,31023,003,7SW8,2SW2070,8
2017-12-14 13:00:0013,896,71024,40,21,3S6,4SW2871,3
2017-12-14 12:00:0012,095,51025,80,21,4E5,7E1280,6
2017-12-14 11:00:0011,487,81026,401,2E3,2SE920,3
2017-12-14 10:00:0010,288,01026,402,2E6,2SE640,1
2017-12-14 09:00:008,790,11026,401,4E5,8SE100,0
2017-12-14 07:00:008,189,31026,401,4E3,4E00
2017-12-14 06:00:007,590,01026,401,3E4,7E00
2017-12-14 05:00:006,792,91026,602,4E9,4E00
2017-12-14 04:00:005,497,31026,901,8E6,0E00
2017-12-14 03:00:005,297,11027,102,1E4,2SE00
2017-12-14 02:00:005,595,41027,201,5E3,6NE00
2017-12-14 01:00:006,093,61027,401,1E4,4E00
2017-12-14 00:00:006,193,91027,602,4E4,9SE00
2017-12-13 23:00:006,492,21027,601,6NE4,6N00,0
2017-12-13 22:00:007,090,71027,502,0NE5,1E00
2017-12-13 21:00:007,888,01027,300,9E8,9E00
2017-12-13 20:00:008,483,21026,801,7N4,8W00
2017-12-13 19:00:009,378,01026,502,3W5,3W00
2017-12-13 18:00:0010,969,61026,202,1W7,0NW30
2017-12-13 17:00:0013,059,71026,004,7SW8,8S310,0
2017-12-13 16:00:0014,155,81025,806,2S12,4S510,2
2017-12-13 15:00:0015,749,61025,807,8S15,2S2740,9
2017-12-13 14:00:0016,248,31026,107,6S13,9S4151,4
2017-12-13 13:00:0015,449,11026,704,9S10,9SE4421,6
2017-12-13 12:00:0014,752,81027,403,8SE9,1S4151,5
2017-12-13 11:00:0012,564,61027,702,5E5,7NE3430,9
2017-12-13 10:00:008,978,91027,901,6NE5,6NE2240,3
2017-12-13 09:00:005,194,41027,802,6NE6,4E390,0
2017-12-13 08:00:004,095,81027,302,6NE6,4E30
2017-12-13 07:00:004,893,21026,603,3N7,6N00
2017-12-13 06:00:006,386,41026,303,4NE13,7N00
2017-12-13 05:00:005,989,81026,307,8N15,9N00
2017-12-13 04:00:004,695,51026,103,8NE8,3NE00
2017-12-13 03:00:004,794,51025,803,0N13,7N00
2017-12-13 02:00:005,689,81025,901,8NE4,5SE00
2017-12-13 01:00:006,289,51025,605,0E8,3E00,0
2017-12-13 00:00:006,188,71025,102,3SE8,0NE00
2017-12-12 23:00:006,588,01024,202,9NW6,3NE00
2017-12-12 22:00:007,283,01023,705,4NE12,7N00
2017-12-12 21:00:007,381,31023,305,4N10,7N00
2017-12-12 20:00:007,878,71022,703,8N10,7N00
2017-12-12 19:00:009,365,51021,604,3NW10,4N00
2017-12-12 18:00:0011,357,21021,007,7N14,1N20
2017-12-12 17:00:0013,050,31020,206,1N16,3NE140,0
2017-12-12 16:00:0013,841,91019,2011,4NE23,6NE360,2
2017-12-12 15:00:0015,038,71018,6011,0NE25,8N3491,0
2017-12-12 13:00:0014,045,31018,9012,3N25,8N4421,3
2017-12-12 12:00:0013,249,11019,2015,5NE30,2NE4191,1
2017-12-12 11:00:0012,651,41019,1016,4N35,0N3450,7
2017-12-12 10:00:0011,154,51019,0016,7N37,2N2200,2
2017-12-12 09:00:008,563,71018,307,2N17,6N370,0
2017-12-12 08:00:008,164,51017,509,2N20,8N30
2017-12-12 07:00:009,363,11016,3018,0N33,5N00
2017-12-12 06:00:009,465,81015,1020,4N37,0N00
2017-12-12 05:00:009,667,51014,8015,9N30,1NE00
2017-12-12 04:00:009,370,71014,7014,5N35,4N00
2017-12-12 03:00:008,474,21014,007,0NW20,7N00
2017-12-12 02:00:008,874,91013,509,1N22,2N00
2017-12-12 01:00:008,384,81013,309,2N24,4N00
2017-12-12 00:00:006,899,91012,9011,6N24,0N00
2017-12-11 23:00:006,5100,01012,007,3NW19,1N00
2017-12-11 22:00:006,5100,01011,004,8N13,7N00
2017-12-11 21:00:006,9100,01010,204,9N14,6N00
2017-12-11 20:00:008,0100,01009,107,5NW18,3N00
2017-12-11 19:00:009,0100,01008,00,46,2NW15,0NW00
2017-12-11 18:00:009,5100,01007,304,4NW14,3NW20
2017-12-11 17:00:0010,199,11006,50,47,4N28,3N200,0
2017-12-11 16:00:0012,388,11004,82,88,1NW44,5NW1260,2
2017-12-11 14:00:0015,658,31004,3016,0NW37,3N3030,9
2017-12-11 13:00:0015,061,91004,7014,8NW38,2NW3571,0
2017-12-11 12:00:0014,762,51005,10,215,2NW38,2NW3210,9
2017-12-11 11:00:0010,898,81005,4014,7NW31,3NW3180,6
2017-12-11 10:00:0010,4100,01005,307,1NW24,7N1930,2
2017-12-11 09:00:008,9100,01004,805,1N22,2NW230,0
2017-12-11 08:00:008,7100,01003,805,5NW16,2NW10
2017-12-11 07:00:008,5100,01003,006,3W14,4NW00
2017-12-11 06:00:008,5100,01003,03,217,2NW56,6N00
2017-12-11 05:00:0010,2100,01001,82,626,6NW60,1N00
2017-12-11 04:00:0012,199,81000,99,612,9NW40,8NW00
2017-12-11 03:00:0015,699,21000,96,628,2W54,7SW00
2017-12-11 02:00:0016,292,81002,8127,5SW59,4SW00
2017-12-11 01:00:0015,994,61005,30,626,0W54,2SW00
2017-12-11 00:00:0016,984,41007,1023,9SW51,2SW00
2017-12-10 23:00:0016,685,81008,8023,2W48,4SW00
2017-12-10 22:00:0016,684,31009,7019,0W48,6SW00
2017-12-10 21:00:0016,583,81010,8017,8W39,9W00
2017-12-10 20:00:0016,184,91011,5012,9W38,3SW00
2017-12-10 19:00:0015,884,31012,708,5W24,4W00
2017-12-10 18:00:0016,279,11013,909,7W31,1W10
2017-12-10 17:00:0017,175,81014,4010,8W25,6W390,0
2017-12-10 16:00:0018,072,81015,4012,0W28,6W1090,2
2017-12-10 15:00:0018,866,31016,8012,6W32,0NW1750,6
2017-12-10 14:00:0019,262,51018,1014,1W36,1W2781,1
2017-12-10 13:00:0018,374,21020,3011,9W35,6W3151,2
2017-12-10 11:00:0014,099,81022,103,5SE11,0SW3430,8
2017-12-10 10:00:0010,0100,01023,201,6SE4,4N2180,2
2017-12-10 09:00:008,6100,01024,001,6E5,7E480,0
2017-12-10 08:00:008,4100,01024,101,7E9,4NE30
2017-12-10 07:00:007,9100,01023,901,8E3,8NE00
2017-12-10 06:00:008,4100,01023,801,5E3,2NE00
2017-12-10 05:00:009,5100,01024,401,7E3,9NE00
2017-12-10 04:00:009,1100,01025,101,3E2,9E00
2017-12-10 03:00:009,4100,01025,601,1E8,0E00
2017-12-10 02:00:0010,3100,01025,601,4SE9,6NW00
2017-12-10 01:00:0011,4100,01026,103,9W9,5SW00
2017-12-10 00:00:0011,199,41026,405,2W12,0W00
2017-12-09 23:00:0011,898,41026,503,3W11,5W00
2017-12-09 22:00:0012,595,91026,403,6W11,1W00
2017-12-09 21:00:0013,493,21026,307,3NW15,9NW00
2017-12-09 20:00:0013,591,71025,805,8NW14,4W00
2017-12-09 19:00:0014,685,31025,306,6NW13,6NW00
2017-12-09 18:00:0015,480,81025,107,5NW15,4NW20
2017-12-09 17:00:0016,673,01024,508,4NW20,2NW120,0
2017-12-09 16:00:0018,662,41024,3014,0NW31,4NW1370,5
2017-12-09 14:00:0019,760,01025,1016,8NW33,0NW3561,3
2017-12-09 13:00:0019,761,81025,9016,3NW33,2NW4361,5
2017-12-09 12:00:0019,463,81026,6016,2N34,5N3481,3
2017-12-09 11:00:0019,068,41026,8012,4N29,8NW3110,9
2017-12-09 10:00:0016,780,51026,907,8NW23,4NW2090,3
2017-12-09 09:00:0013,893,41026,702,7NW9,8NW350,0
2017-12-09 08:00:0013,694,31026,504,4W14,5W50
2017-12-09 07:00:0014,092,61026,404,4W11,7SW00
2017-12-09 06:00:0014,390,51026,206,4W18,2NW00
2017-12-09 05:00:0014,490,61026,306,1NW12,7NW00
2017-12-09 04:00:0014,489,61026,603,9W11,1W00
2017-12-09 03:00:0014,589,31027,008,9N24,2N00
2017-12-09 02:00:0013,094,61026,907,1N15,7N00
2017-12-09 01:00:0013,196,31027,1012,0N24,4N00
2017-12-09 00:00:0012,997,71027,103,5N9,8N00
2017-12-08 23:00:0014,394,81027,202,8N13,0NW00
2017-12-08 22:00:0014,793,81027,004,3NW14,0NW00
2017-12-08 21:00:0014,893,11027,004,2NW9,4W00
2017-12-08 20:00:0014,891,91026,705,7NW16,6NW00
2017-12-08 18:00:0015,686,71026,605,3NW15,0NW10
2017-12-08 17:00:0016,778,81026,4012,4NW28,9NW300,0
2017-12-08 16:00:0017,667,51026,3010,8W29,0NW470,2
2017-12-08 15:00:0018,548,91026,506,8SW12,9SW2450,9
2017-12-08 14:00:0018,943,41027,106,4SW16,6SW3891,5
2017-12-08 13:00:0017,547,41028,205,4S10,0S4151,8
2017-12-08 12:00:0016,845,41029,202,9SW8,4SE3891,5
2017-12-08 11:00:0013,954,71030,202,0N6,7NW3311,0
2017-12-08 10:00:008,478,91030,601,4N4,2NE2190,3
2017-12-08 09:00:004,494,61030,201,6N6,2NW390,0
2017-12-08 08:00:002,797,91029,903,0N6,1NW50
2017-12-08 07:00:002,698,11029,600,8NE2,2N00
2017-12-08 06:00:002,897,81029,201,9N5,4N00
2017-12-08 05:00:003,097,71029,203,3N6,9N00
2017-12-08 04:00:003,497,61029,402,8E4,9SE00
2017-12-08 03:00:003,797,31029,502,5E12,3SE00
2017-12-08 02:00:004,197,01029,502,6E5,9NE00
2017-12-08 01:00:004,896,91029,801,3NE4,7N00
2017-12-07 23:00:005,796,01030,001,6E4,5E00
2017-12-07 22:00:006,593,91029,701,7NE5,4N00
2017-12-07 21:00:007,590,61029,302,2N5,1N00
2017-12-07 20:00:008,487,81028,902,7NW7,9NW00
2017-12-07 19:00:009,486,21028,502,8W6,7W00
2017-12-07 18:00:0011,180,21028,102,9W11,9W20
2017-12-07 17:00:0013,370,01027,705,1SW10,7SW160,0
2017-12-07 16:00:0014,464,31027,40,26,7S16,4S360,2
2017-12-07 15:00:0015,857,01027,408,4S14,6SW2520,8
2017-12-07 14:00:0016,650,91028,106,6S14,4SW4251,4
2017-12-07 13:00:0015,852,71028,805,9SW12,8SW4541,6
2017-12-07 12:00:0015,155,21030,003,5SE8,3SE4281,4
2017-12-07 11:00:0011,770,81030,801,6E5,0SE3440,9
2017-12-07 10:00:006,695,31030,902,1E4,7E2350,3
2017-12-07 09:00:004,3100,01030,503,4NE8,1NE360,0
2017-12-07 08:00:003,7100,01030,004,2E7,1E80
2017-12-07 07:00:003,1100,01029,904,2E7,1E00
2017-12-07 06:00:003,0100,01029,603,2NE5,5NE00
2017-12-07 05:00:003,7100,01029,603,0NE6,8E00
2017-12-07 03:00:003,999,81029,903,4E6,4NE00
2017-12-07 02:00:004,599,41029,902,5E4,6E00
2017-12-07 01:00:004,998,81030,202,8E4,9E00
2017-12-07 00:00:005,698,71030,502,6E6,3E00
2017-12-06 23:00:006,098,31030,401,6NE4,5NE00
2017-12-06 22:00:006,897,11030,102,2E4,5E00
2017-12-06 21:00:007,994,61029,902,0E4,9E00
2017-12-06 20:00:009,289,91029,404,2N9,0N00
2017-12-06 19:00:0010,087,81028,904,3N8,2N00
2017-12-06 18:00:0011,781,71028,404,3SE13,2SE10
2017-12-06 17:00:0013,674,31028,207,0SE12,8S160,0
2017-12-06 16:00:0014,769,11027,907,8SE16,7SE380,2
2017-12-06 15:00:0016,162,21028,108,3SE16,4SE2610,8
2017-12-06 14:00:0016,261,21028,709,4SE19,9SE4001,3
2017-12-06 13:00:0015,862,71029,4010,1SE19,8SE3781,4
2017-12-06 12:00:0015,556,51030,508,8E21,4SE4291,3
2017-12-06 11:00:0013,465,21031,505,6E16,8E3730,9
2017-12-06 10:00:006,489,21031,702,7E11,5SE1350,2
2017-12-06 08:00:003,898,71031,403,3E6,3NE50
2017-12-06 07:00:003,698,21031,003,3E11,1SE-10
2017-12-06 06:00:003,698,01030,702,9E6,3E00
2017-12-06 05:00:003,697,81031,002,5E11,4E00
2017-12-06 04:00:003,997,41031,202,5E4,8E00
2017-12-06 03:00:004,196,71031,403,1E11,6E00
2017-12-06 02:00:004,595,71031,303,0E8,6E00
2017-12-06 01:00:005,095,01031,502,0E4,2E00
2017-12-06 00:00:005,592,31031,902,7NE7,7NE00
2017-12-05 23:00:006,391,21031,703,5E11,4E00
2017-12-05 22:00:006,989,81031,602,9E6,3E00
2017-12-05 21:00:008,285,01031,403,2N7,6N00
2017-12-05 20:00:008,883,71030,603,8N10,8N00
2017-12-05 19:00:0010,180,11030,203,4NE7,0NE-10
2017-12-05 18:00:0012,272,21029,704,0E8,6E20
2017-12-05 17:00:0014,065,21029,407,1SE15,5SE160,0
2017-12-05 16:00:0015,461,11029,3011,0SE21,1S1470,5
2017-12-05 14:00:0016,655,81030,0014,0SE24,5SE4471,3
2017-12-05 13:00:0016,257,11030,5012,4SE22,8SE4711,5
2017-12-05 12:00:0016,055,41031,508,7E25,9SE4421,3
2017-12-05 11:00:0014,160,31032,307,5E15,9E3680,9
2017-12-05 10:00:008,673,91032,703,9E12,6NE2380,3
2017-12-05 09:00:004,685,21032,503,6E7,7NE290,0
2017-12-05 08:00:003,192,21032,204,2E7,4E50
2017-12-05 07:00:003,092,11031,604,0E13,0SE00
2017-12-05 06:00:002,991,61031,303,3E6,8NE00
2017-12-05 05:00:003,088,61031,103,6E5,9E00
2017-12-05 04:00:003,484,21031,202,9E9,7E00
2017-12-05 03:00:003,084,81031,503,7E6,2E00
2017-12-05 02:00:002,880,91031,402,6E5,6E00
2017-12-05 01:00:003,178,01031,402,8E6,3NE00
2017-12-05 00:00:004,069,71031,502,5NE6,4E-10
2017-12-04 23:00:004,277,71031,403,5E9,9NE00
2017-12-04 22:00:004,976,51031,101,9E4,6E-10
2017-12-04 21:00:006,468,51031,002,7E7,4NE00
2017-12-04 20:00:007,570,21030,103,1NE6,4NE00
2017-12-04 18:00:0010,756,91029,002,9E7,5NE20
2017-12-04 17:00:0013,345,91028,205,5SE11,2SE140,0
2017-12-04 16:00:0014,142,81027,808,2S15,9SE340,2
2017-12-04 15:00:0015,737,91027,709,2S16,5S2640,8
2017-12-04 14:00:0016,928,11028,106,3SE13,0SE4641,3
2017-12-04 13:00:0015,527,71028,905,1E11,3NE4881,5
2017-12-04 12:00:0014,629,31030,106,6E15,3E4601,3
2017-12-04 11:00:0012,234,51030,705,7E11,7E3830,8
2017-12-04 10:00:008,049,71031,103,1NE11,6E2530,3
2017-12-04 09:00:003,764,51030,702,5NE6,8NE270,0
2017-12-04 08:00:002,565,31030,204,3NE10,2NE50
2017-12-04 07:00:002,467,31029,704,9NE9,7NE00
2017-12-04 06:00:002,964,71029,304,1NE9,9NE00
2017-12-04 05:00:002,666,91029,103,3NE9,3N00
2017-12-04 04:00:002,868,21029,303,5NE6,1NE00
2017-12-04 03:00:003,460,81029,404,3NE10,6E00
2017-12-04 02:00:003,864,01029,404,3NE9,5NE00
2017-12-04 01:00:004,260,21029,604,0NE12,3E00
2017-12-03 23:00:004,861,61029,203,1NE8,7NE-10
2017-12-03 22:00:005,861,51028,503,4NE11,8E00
2017-12-03 21:00:008,049,71028,005,9NE14,3NE-10
2017-12-03 20:00:009,245,21027,506,2NE12,5NE00
2017-12-03 19:00:009,644,01027,004,9NE11,0NE00
2017-12-03 18:00:0011,738,41026,207,0NE15,9N20
2017-12-03 17:00:0013,434,11025,608,9NE18,0NE140,0
2017-12-03 16:00:0013,643,51025,005,6SE20,0NE310,2
2017-12-03 15:00:0015,538,51024,906,8S15,2S2650,8
2017-12-03 14:00:0016,131,11025,506,0E15,4SE4671,3
2017-12-03 13:00:0014,933,81026,205,6SE12,1SE4911,5
2017-12-03 12:00:0014,636,31026,706,0E14,5SE4621,3
2017-12-03 11:00:0012,544,71027,306,3E14,0SE3860,9
2017-12-03 10:00:008,657,41027,504,3E9,7E2570,3
2017-12-03 09:00:005,765,01027,004,4E9,6NE270,0
2017-12-03 08:00:004,765,61026,604,0NE9,8N50
2017-12-03 07:00:004,864,51026,306,0NE13,7NE00
2017-12-03 06:00:003,177,31026,003,5E7,8NE00
2017-12-03 05:00:003,377,11025,803,6E10,1NE00
2017-12-03 04:00:004,867,61025,503,7NE8,5NE00
2017-12-03 02:00:006,458,81025,406,5NE14,4NE00
2017-12-03 01:00:005,961,61025,504,1NE11,2NE00
2017-12-03 00:00:006,262,11025,605,9NE11,7NE00
2017-12-02 23:00:007,059,41025,305,4NE14,2N00
2017-12-02 22:00:007,453,51025,006,4NE19,6N-10
2017-12-02 21:00:007,553,61024,706,0NE10,0NE00
2017-12-02 20:00:007,552,21024,404,4NE10,5NE00
2017-12-02 19:00:008,946,81023,503,9N7,9NE00
2017-12-02 18:00:0011,137,71022,707,3NE12,9NE20
2017-12-02 17:00:0012,732,01022,209,1NE17,1N130,0
2017-12-02 16:00:0013,431,01021,808,1NE16,6NE320,2
2017-12-02 15:00:0014,930,91021,908,4NE21,8E2800,7
2017-12-02 14:00:0015,632,01022,508,2NE18,3N4711,3
2017-12-02 13:00:0014,436,61023,307,3E17,0E4931,4
2017-12-02 12:00:0013,939,61024,308,9E19,0E4681,3
2017-12-02 11:00:0011,061,01025,206,6E17,9E3230,6
2017-12-02 09:00:006,383,71025,104,6NE9,4NE280,0
2017-12-02 08:00:004,990,11024,404,5NE9,1NE50
2017-12-02 07:00:004,990,91023,902,8E7,3NE00
2017-12-02 06:00:005,987,71023,503,8E9,7E00
2017-12-02 05:00:006,091,41023,404,0E10,6NE00
2017-12-02 04:00:006,488,91023,102,6NE7,3E00
2017-12-02 03:00:007,385,51023,203,4N11,6N-10
2017-12-02 02:00:008,780,41023,005,4N16,4N00
2017-12-02 01:00:009,876,31022,9010,0N27,3N-10
2017-12-02 00:00:0010,870,11022,4011,5NE36,2NE00
2017-12-01 23:00:0011,463,31022,3012,6N36,8N00
2017-12-01 22:00:0011,565,21022,408,0N29,2N00
2017-12-01 21:00:0010,274,01022,203,9SW10,9W00
2017-12-01 20:00:0010,373,21022,104,7W10,8W00
2017-12-01 19:00:0011,067,71021,507,2NW20,2N00
2017-12-01 18:00:0012,955,51020,309,3NW24,3NW70,0
2017-12-01 16:00:0014,841,11019,7011,2N26,1N330,2
2017-12-01 15:00:0016,137,01019,5010,7N22,6NE2710,8
2017-12-01 14:00:0017,233,91019,806,7NW16,8N4691,4
2017-12-01 13:00:0015,836,81020,706,4N15,9NW4911,5
2017-12-01 12:00:0015,237,91022,104,7NW16,1NW4671,4
2017-12-01 11:00:0013,146,21023,101,8NW8,3S3910,9
2017-12-01 10:00:008,562,31024,101,4NE5,2E2650,4
2017-12-01 09:00:004,182,61024,001,2NE5,5NE280,0
2017-12-01 08:00:002,982,01023,302,7N6,1N60
2017-12-01 07:00:003,778,51022,504,1N6,9N00
2017-12-01 06:00:005,171,01022,403,9NE12,3NE00
2017-12-01 05:00:006,065,41022,504,9E9,8NE00
2017-12-01 04:00:006,462,81022,805,3NE12,4NE-10
2017-12-01 03:00:007,757,71022,907,2NE16,8NE00
2017-12-01 02:00:006,565,41022,603,8NE13,9E-10
2017-12-01 01:00:006,766,51022,506,6N19,7N00
2017-11-30 23:00:006,671,11022,303,0N6,9N00
2017-11-30 22:00:008,065,31021,502,9NW8,1N00
2017-11-30 21:00:009,258,71020,909,8N16,8N00
2017-11-30 20:00:009,757,11020,105,7NW12,2N00
2017-11-30 19:00:0010,753,31019,0010,6N19,3N00
2017-11-30 18:00:0011,748,31018,107,9N15,0N20
2017-11-30 17:00:0013,738,21017,4012,8N29,6N140,0
2017-11-30 16:00:0014,436,71016,3016,2N32,2NE330,2
2017-11-30 15:00:0015,734,01015,6014,5N28,3N2680,8
2017-11-30 14:00:0016,435,61015,6011,7NE23,8NE4661,3
2017-11-30 13:00:0015,140,01015,6013,9NE27,4N4921,5
2017-11-30 12:00:0014,345,41015,9013,2NE26,3NE4631,3
2017-11-30 11:00:0012,651,61016,1011,8NE23,2N3850,9
2017-11-30 10:00:0010,658,31016,109,5NE25,3NE2570,3
2017-11-30 09:00:008,167,71014,609,3N20,7N180,0
2017-11-30 07:00:008,566,21013,0016,1N26,6N00
2017-11-30 06:00:008,466,41012,4014,1N24,4N00
2017-11-30 05:00:008,269,81012,0011,1N23,5N00
2017-11-30 04:00:006,585,41012,005,2N14,5N00
2017-11-30 03:00:007,084,21011,701,8NW6,1NW00
2017-11-30 02:00:008,476,11011,504,3N11,4N00
2017-11-30 01:00:008,874,31011,606,4N15,5N00
2017-11-30 00:00:009,177,71011,307,2N13,8N00
2017-11-29 23:00:009,575,41010,908,4N12,7N00
2017-11-29 22:00:009,675,71010,507,3N11,2N-10
2017-11-29 21:00:0010,576,91010,204,8N12,8N00
2017-11-29 20:00:0010,779,51009,604,3NW10,0NW00
2017-11-29 19:00:0011,775,71009,104,5NW11,5NW00
2017-11-29 18:00:0013,168,91008,105,6NW15,7N20
2017-11-29 17:00:0014,761,91007,2010,2NW24,4NW150,0
2017-11-29 16:00:0016,059,71004,0013,5NW24,5NW350,2
2017-11-29 15:00:0018,253,81003,3012,9NW31,1NW2460,7
2017-11-29 14:00:0019,251,21005,7010,8NW21,7NW4321,3
2017-11-29 13:00:0016,685,51006,107,3N20,0N4581,6
2017-11-29 12:00:0014,7100,01007,009,7N18,4N2680,9
2017-11-29 11:00:0015,1100,01007,409,2N17,8NE2840,8
2017-11-28 15:00:0021,380,01011,308,1S16,5SE1710,5
2017-11-28 14:00:0020,978,51012,3010,5SE19,8SE2931,1
2017-11-28 13:00:0020,278,21013,4010,1SE20,4SE2521,0
2017-11-28 12:00:0019,679,91014,5012,2SE25,5SE3021,1
2017-11-28 11:00:0018,585,21015,6010,2SE22,0SE2810,8
2017-11-28 10:00:0016,990,21016,208,1E20,5E950,2
2017-11-28 09:00:0015,892,11016,607,8E15,3E460,0
2017-11-28 08:00:0015,592,31016,907,0E13,8E30
2017-11-28 07:00:0015,094,81017,105,8NE11,1E00
2017-11-28 06:00:0014,897,41017,303,0E7,0NE00
2017-11-28 05:00:0015,196,31017,604,0NE8,5NE00
2017-11-28 04:00:0015,396,01017,807,2E12,5E00
2017-11-28 03:00:0015,397,41018,108,5E16,7E00
2017-11-28 02:00:0015,199,01018,705,5NE14,4E00
2017-11-28 01:00:0015,497,21019,30,26,0E16,0E00
2017-11-28 00:00:0015,197,41020,006,3NE12,0E-10
2017-11-27 23:00:0015,197,61020,206,8E13,4E00
2017-11-27 22:00:0015,695,11020,30,48,2E18,8E00
2017-11-27 21:00:0016,091,31021,20,24,0E11,0NE00
2017-11-27 20:00:0016,189,51021,204,0E10,7E00
2017-11-27 19:00:0016,388,41020,805,5E11,8E00
2017-11-27 18:00:0017,484,81021,007,2E15,5SE10
2017-11-27 17:00:0017,982,21021,209,0SE20,0E360,0
2017-11-27 16:00:0018,378,41020,9011,0SE20,0SE630,2
2017-11-27 15:00:0019,372,91020,9012,3SE23,6SE1740,5
2017-11-27 14:00:0019,967,41021,2010,6SE21,1SE2560,9
2017-11-27 13:00:0020,065,71021,9010,7SE20,4SE3181,1
2017-11-27 12:00:0018,870,11023,2011,0SE20,4E3411,1
2017-11-27 11:00:0017,582,31024,107,7E17,3E1660,5
2017-11-27 10:00:0016,390,41024,405,6E11,5E1210,2
2017-11-27 09:00:0014,697,61024,006,1NE12,2E460,0
2017-11-27 08:00:0013,599,41023,804,6E9,1E60
2017-11-27 07:00:0013,298,91023,502,3E5,6SE00
2017-11-27 06:00:0012,998,71023,202,8E5,9E00
2017-11-27 05:00:0012,198,91022,902,5E6,2NE00
2017-11-27 04:00:0012,198,21023,102,8E8,9E00
2017-11-27 03:00:0012,098,71023,302,4E5,3E00
2017-11-27 02:00:0012,198,21023,102,8E6,1E00
2017-11-27 01:00:0012,498,11023,203,3E7,1E00
2017-11-27 00:00:0012,997,11023,403,1E7,0NE00
2017-11-26 23:00:0013,596,01023,402,7E9,4E00
2017-11-26 22:00:0014,093,91023,400,8NE3,5E00
2017-11-26 21:00:0014,990,11023,202,6NE7,1N00
2017-11-26 20:00:0015,987,11022,603,2N11,6N00
2017-11-26 19:00:0016,884,81022,302,6SW6,1NW00
2017-11-26 18:00:0017,878,71021,903,8SE10,3SE10
2017-11-26 17:00:0018,677,81021,307,6SE15,8E170,0
2017-11-26 16:00:0019,276,61021,306,7SE16,6SE680,1
2017-11-26 15:00:0019,974,91021,607,2S14,2S1050,3
2017-11-26 14:00:0021,367,51021,506,0S11,8SE2060,8
2017-11-26 13:00:0021,667,21021,706,6S12,6S3961,3
2017-11-26 12:00:0019,982,91022,903,4E7,4SE2680,9
2017-11-26 11:00:0018,088,91023,301,9SE6,2SE1520,4
2017-11-26 10:00:0016,996,61023,101,6NE7,1NW970,2
2017-11-26 09:00:0015,8100,01022,600,8NE3,1E380,0
2017-11-26 08:00:0015,4100,01021,602,8E10,9NE50
2017-11-26 07:00:0015,499,81020,903,7E7,9E00
2017-11-25 23:00:0016,399,81019,601,7NE3,9E00
2017-11-25 22:00:0016,799,51019,001,5E5,3N00
2017-11-25 21:00:0017,199,11018,702,5NE5,2NE00
2017-11-25 20:00:0017,398,21018,901,9NE4,7E-10
2017-11-25 19:00:0017,797,01018,401,8NE5,1NE00
2017-11-25 18:00:0018,194,11018,005,6SW13,8SW20
2017-11-25 17:00:0019,686,41017,806,4SW13,9SW370,0
2017-11-25 16:00:0020,780,91017,406,6SW15,7S1090,2
2017-11-25 15:00:0021,177,11017,203,1SW8,7S1300,4
2017-11-25 14:00:0021,478,91017,503,8SW8,8S2410,9
2017-11-25 13:00:0020,087,71018,101,6SW5,0N2251,1
2017-11-25 12:00:0017,699,81018,801,5E4,6E1520,8
2017-11-25 11:00:0016,4100,01019,001,6E5,4E1680,6
2017-11-25 10:00:0014,8100,01018,602,1E9,5NE1160,2
2017-11-25 09:00:0013,5100,01018,201,8NE4,1NE240,0
2017-11-25 08:00:0012,6100,01017,802,8E5,4NE40
2017-11-25 07:00:0012,4100,01017,402,7E5,9NE00
2017-11-25 06:00:0012,3100,01017,401,5E4,2SE00
2017-11-25 05:00:0012,1100,01017,302,1E6,0NE00
2017-11-25 04:00:0011,9100,01017,302,3E4,5NE00
2017-11-25 03:00:0011,9100,01017,502,5E5,1NE00
2017-11-25 02:00:0012,5100,01017,502,8E5,0SE00
2017-11-25 01:00:0012,9100,01017,502,6N6,0NE00
2017-11-25 00:00:0012,9100,01017,503,1NE8,2NE00
2017-11-24 23:00:0013,299,51017,402,8E6,1NE00
2017-11-24 22:00:0013,798,51017,303,3E7,9E00
2017-11-24 21:00:0014,598,41017,204,4E8,2E00
2017-11-24 20:00:0015,495,41016,702,9E6,4E00
2017-11-24 19:00:0017,392,11016,305,9E16,2E00
2017-11-24 18:00:0018,287,11015,906,3SE15,2SE30
2017-11-24 17:00:0019,779,01015,70,29,2SE17,2SE340,0
2017-11-24 16:00:0020,870,81015,708,7SE19,3S1010,3
2017-11-24 15:00:0021,371,81015,908,1SE15,4SE2090,8
2017-11-24 14:00:0022,073,21016,409,3S18,3SE3311,4
2017-11-24 13:00:0021,774,61016,7011,4S20,9SE4481,9
2017-11-24 12:00:0019,690,71017,509,1S15,7S4061,6
2017-11-24 11:00:0018,1100,01017,805,2SE13,3S3761,1
2017-11-24 10:00:0016,5100,01018,003,7E8,4E2440,4
2017-11-24 09:00:0014,8100,01018,002,9E7,3E730,1
2017-11-24 08:00:0013,7100,01017,703,9E9,1E140
2017-11-24 07:00:0013,8100,01017,30,23,8E6,9E00
2017-11-24 06:00:0013,3100,01017,203,2E6,5E00
2017-11-24 05:00:0012,9100,01016,902,8E10,0E00
2017-11-24 04:00:0013,4100,01016,903,0E7,1E00
2017-11-24 03:00:0014,1100,01017,001,6E5,5NE00
2017-11-24 02:00:0014,8100,01016,801,6E5,8NE00
2017-11-24 01:00:0015,8100,01016,501,8SE6,2SE00
2017-11-24 00:00:0016,3100,01016,404,4S8,4S00
2017-11-23 23:00:0017,4100,01016,305,2SW14,1SW00
2017-11-23 22:00:0017,6100,01016,404,6S13,9S00
2017-11-23 21:00:0017,3100,01016,403,3S9,4S00
2017-11-23 20:00:0017,1100,01016,205,4W176,2N00
2017-11-23 19:00:0017,198,51015,80,65,1SW18,1SW00
2017-11-23 18:00:0018,092,51015,13,49,3SW21,6W20
2017-11-23 17:00:0019,879,81014,4015,4SW35,5SW130,0
2017-11-23 16:00:0020,773,91014,2012,3S26,2SW750,1
2017-11-23 15:00:0021,071,41014,3010,4S21,9S1190,5
2017-11-23 14:00:0021,370,21014,7014,2S29,2S1770,9
2017-11-23 13:00:0021,573,51015,1012,2S27,7S2601,4
2017-11-23 12:00:0020,880,51015,4011,8S26,0S3141,4
2017-11-23 11:00:0017,799,61015,5011,2S22,8SE1710,7
2017-11-23 10:00:0016,8100,01015,408,1SE20,2S1170,3
2017-11-23 09:00:0014,4100,01015,204,0E8,5E590,1
2017-11-23 08:00:0013,1100,01014,504,3E10,4E100
2017-11-23 07:00:0013,0100,01014,203,7E9,0E00
2017-11-23 06:00:0012,9100,01013,904,1E8,1E00
2017-11-23 05:00:0012,7100,01013,704,6E8,9NE00
2017-11-23 04:00:0012,3100,01013,703,6E8,7E00
2017-11-23 03:00:0012,3100,01013,403,7NE12,0E00
2017-11-23 02:00:0012,699,81013,203,3NE7,2NE00
2017-11-23 01:00:0013,099,21013,303,0NE5,6NE00
2017-11-23 00:00:0013,698,41013,302,8E6,4E00
2017-11-22 23:00:0014,297,01013,303,3E7,1E00
2017-11-22 22:00:0014,796,11013,304,0E8,4E00
2017-11-22 21:00:0015,096,41013,204,0E8,0E00
2017-11-22 20:00:0015,196,21013,004,1E8,1E00
2017-11-22 19:00:0015,593,21012,603,7NE7,5E00
2017-11-22 18:00:0017,388,01012,005,9SE11,4SE20
2017-11-22 17:00:0018,684,11011,808,5SE17,4SE220,0
2017-11-22 16:00:0019,380,01011,9010,6SE19,8SE430,2
2017-11-22 15:00:0020,575,21012,2010,8SE21,3SE2370,8
2017-11-22 14:00:0021,072,91012,8011,6SE23,3SE4311,3
2017-11-22 13:00:0020,374,71013,7011,8SE25,8S3991,4
2017-11-22 12:00:0020,472,91014,7011,4SE25,7SE4261,4
2017-11-22 11:00:0016,991,21015,304,9E16,6SE3310,9
2017-11-22 10:00:0013,899,91015,506,1E11,8E2140,3
2017-11-22 09:00:0012,1100,01015,404,7E11,0E610,0
2017-11-22 08:00:0010,8100,01015,003,1E9,0E220
2017-11-22 07:00:0010,7100,01014,902,7E8,8E00
2017-11-22 06:00:0010,5100,01014,902,5E6,3E00
2017-11-22 05:00:0011,0100,01014,902,5NE9,6E00
2017-11-22 04:00:0011,9100,01015,402,7E6,4SE00
2017-11-22 03:00:0011,7100,01016,002,5E10,2E00
2017-11-22 02:00:0010,9100,01016,402,1E5,9E00
2017-11-22 01:00:0010,4100,01016,700,9N4,0N10
2017-11-22 00:00:0010,299,81016,901,3E4,0E10